Time;durP1;ratioP1;P1;durP2;ratioP2;P2;SDS_P1;SDS_P2;PMS_P1;PMS_P2;Temp;Humidity;BMP_temperature;BMP_pressure;BME280_temperature;BME280_humidity;BME280_pressure;Samples;Min_cycle;Max_cycle;Signal;HPM_P1;HPM_P2
2022/02/09 00:04:40;;;;;;;;;;;8.90;99.90;;;;;;4968298;28;19910;-74
2022/02/09 00:07:11;;;;;;;;;;;8.80;99.90;;;;;;4970411;28;19965;-73
2022/02/09 00:09:38;;;;;;;;;;;8.80;99.90;;;;;;4970753;28;19906;-73
2022/02/09 00:12:09;;;;;;;;;;;8.80;99.90;;;;;;4967964;28;19917;-73
2022/02/09 00:14:44;;;;;;;;;;;8.90;99.90;;;;;;4974727;28;19949;-74
2022/02/09 00:25:26;;;;;;;;;;;8.90;99.90;;;;;;4970988;28;20320;-73
2022/02/09 00:39:00;;;;;;;;;;;8.80;99.90;;;;;;4964632;28;19964;-74
2022/02/09 00:58:55;;;;;;;;;;;8.90;99.90;;;;;;4962612;28;19918;-75
2022/02/09 01:42:13;;;;;;;;;;;8.90;99.90;;;;;;4983900;28;20008;-77
2022/02/09 01:56:54;;;;;;;;;;;8.80;99.90;;;;;;4980496;28;19913;-76
2022/02/09 01:59:19;;;;;;;;;;;8.80;99.90;;;;;;4962091;28;20588;-77
2022/02/09 02:01:45;;;;;;;;;;;8.80;99.90;;;;;;4962803;28;19910;-77
2022/02/09 02:04:11;;;;;;;;;;;8.80;99.90;;;;;;4979918;28;20065;-77
2022/02/09 02:06:36;;;;;;;;;;;8.80;99.90;;;;;;4981426;28;19918;-75
2022/02/09 02:09:03;;;;;;;;;;;8.80;99.90;;;;;;4978895;28;19989;-77
2022/02/09 02:11:44;;;;;;;;;;;8.80;99.90;;;;;;4962499;28;19914;-76
2022/02/09 02:17:33;;;;;;;;;;;8.80;99.90;;;;;;4961188;28;20411;-76
2022/02/09 02:27:12;;;;;;;;;;;8.70;99.90;;;;;;4963207;28;19917;-77
2022/02/09 02:32:36;;;;;;;;;;;8.70;99.90;;;;;;4982936;28;19914;-76
2022/02/09 03:17:19;;;;;;;;;;;8.60;99.90;;;;;;4985210;28;20272;-76
2022/02/09 03:19:57;;;;;;;;;;;8.60;99.90;;;;;;4941602;28;19917;-76
2022/02/09 03:22:28;;;;;;;;;;;8.60;99.90;;;;;;4978204;28;19999;-75
2022/02/09 03:25:26;;;;;;;;;;;8.60;99.90;;;;;;4977556;28;20448;-77
2022/02/09 03:30:58;;;;;;;;;;;8.60;99.90;;;;;;4980034;28;19914;-77
2022/02/09 03:55:12;;;;;;;;;;;8.50;99.90;;;;;;4966015;28;20344;-72
2022/02/09 03:57:46;;;;;;;;;;;8.50;99.90;;;;;;4963164;28;19925;-73
2022/02/09 04:00:12;;;;;;;;;;;8.50;99.90;;;;;;4978470;28;20372;-72
2022/02/09 04:02:38;;;;;;;;;;;8.60;99.90;;;;;;4981012;28;19937;-71
2022/02/09 04:05:04;;;;;;;;;;;8.50;99.90;;;;;;4978777;28;19905;-73
2022/02/09 04:07:29;;;;;;;;;;;8.50;99.90;;;;;;4961346;28;19913;-73
2022/02/09 04:09:58;;;;;;;;;;;8.60;99.90;;;;;;4982235;28;19914;-72
2022/02/09 04:12:44;;;;;;;;;;;8.50;99.90;;;;;;4978714;28;19945;-74
2022/02/09 04:15:25;;;;;;;;;;;8.50;99.90;;;;;;4957331;28;19913;-73
2022/02/09 04:57:00;;;;;;;;;;;8.60;99.90;;;;;;4986411;28;19929;-71
2022/02/09 04:59:40;;;;;;;;;;;8.50;99.90;;;;;;4957013;28;20144;-72
2022/02/09 05:21:22;;;;;;;;;;;8.50;99.90;;;;;;4975015;28;19921;-74
2022/02/09 05:26:38;;;;;;;;;;;8.50;99.90;;;;;;4981848;28;19969;-74
2022/02/09 05:29:03;;;;;;;;;;;8.50;99.90;;;;;;4977347;28;20028;-73
2022/02/09 05:31:29;;;;;;;;;;;8.50;99.90;;;;;;4958349;28;20346;-73
2022/02/09 05:33:54;;;;;;;;;;;8.40;99.90;;;;;;4976620;28;19914;-74
2022/02/09 05:36:20;;;;;;;;;;;8.40;99.90;;;;;;4981189;28;19913;-72
2022/02/09 05:38:46;;;;;;;;;;;8.40;99.90;;;;;;4974725;28;20398;-72
2022/02/09 05:41:11;;;;;;;;;;;8.40;99.90;;;;;;4981822;28;19956;-73
2022/02/09 05:43:37;;;;;;;;;;;8.40;99.90;;;;;;4974664;28;19917;-72
2022/02/09 05:46:31;;;;;;;;;;;8.40;99.90;;;;;;4961523;28;19961;-72
2022/02/09 05:51:38;;;;;;;;;;;8.40;99.90;;;;;;4974122;28;20008;-72
2022/02/09 05:54:22;;;;;;;;;;;8.40;99.90;;;;;;4979023;28;19972;-72
2022/02/09 05:57:09;;;;;;;;;;;8.40;99.90;;;;;;4974788;28;20026;-73
2022/02/09 05:59:33;;;;;;;;;;;8.40;99.90;;;;;;4963519;28;19916;-73
2022/02/09 06:01:58;;;;;;;;;;;8.40;99.90;;;;;;4981160;28;20595;-73
2022/02/09 06:04:24;;;;;;;;;;;8.40;99.90;;;;;;4977478;28;20451;-72
2022/02/09 06:06:50;;;;;;;;;;;8.30;99.90;;;;;;4973804;28;19909;-73
2022/02/09 06:09:16;;;;;;;;;;;8.30;99.90;;;;;;4960200;28;19945;-73
2022/02/09 06:14:23;;;;;;;;;;;8.30;99.90;;;;;;4985610;28;20383;-72
2022/02/09 06:19:41;;;;;;;;;;;8.30;99.90;;;;;;4977676;28;19910;-73
2022/02/09 06:22:07;;;;;;;;;;;8.30;99.90;;;;;;4974178;28;19996;-72
2022/02/09 06:24:41;;;;;;;;;;;8.30;99.90;;;;;;4979905;28;20411;-74
2022/02/09 06:27:07;;;;;;;;;;;8.30;99.90;;;;;;4976179;28;20381;-73
2022/02/09 06:29:33;;;;;;;;;;;8.40;99.90;;;;;;4970640;28;20282;-72
2022/02/09 06:32:07;;;;;;;;;;;8.30;99.90;;;;;;4982479;28;19949;-74
2022/02/09 06:34:32;;;;;;;;;;;8.30;99.90;;;;;;4977063;28;20017;-73
2022/02/09 06:37:09;;;;;;;;;;;8.30;99.90;;;;;;4975573;28;19997;-73
2022/02/09 06:39:34;;;;;;;;;;;8.30;99.90;;;;;;4970009;28;19933;-75
2022/02/09 06:42:02;;;;;;;;;;;8.30;99.90;;;;;;4977133;28;20380;-73
2022/02/09 06:44:32;;;;;;;;;;;8.30;99.90;;;;;;4966333;28;20287;-77
2022/02/09 06:47:00;;;;;;;;;;;8.30;99.90;;;;;;4973652;28;19918;-77
2022/02/09 06:49:26;;;;;;;;;;;8.20;99.90;;;;;;4951608;28;19914;-78
2022/02/09 06:51:51;;;;;;;;;;;8.20;99.90;;;;;;4967170;28;19924;-75
2022/02/09 06:54:27;;;;;;;;;;;8.20;99.90;;;;;;4965254;28;19972;-75
2022/02/09 06:59:28;;;;;;;;;;;8.20;99.90;;;;;;4980250;28;20250;-77
2022/02/09 07:02:05;;;;;;;;;;;8.20;99.90;;;;;;4960012;28;19933;-77
2022/02/09 07:04:31;;;;;;;;;;;8.30;99.90;;;;;;4945448;28;19925;-75
2022/02/09 07:06:57;;;;;;;;;;;8.20;99.90;;;;;;4982556;28;19914;-77
2022/02/09 07:09:23;;;;;;;;;;;8.20;99.90;;;;;;4983996;28;20355;-77
2022/02/09 07:11:49;;;;;;;;;;;8.20;99.90;;;;;;4971439;28;19925;-77
2022/02/09 07:14:20;;;;;;;;;;;8.20;99.90;;;;;;4978360;28;20579;-78
2022/02/09 07:16:46;;;;;;;;;;;8.20;99.90;;;;;;4973146;28;20724;-74
2022/02/09 07:19:11;;;;;;;;;;;8.20;99.90;;;;;;4969999;28;19916;-77
2022/02/09 07:21:39;;;;;;;;;;;8.20;99.90;;;;;;4979652;28;20483;-78
2022/02/09 07:24:07;;;;;;;;;;;8.30;99.90;;;;;;4966990;28;19910;-77
2022/02/09 07:29:11;;;;;;;;;;;8.30;99.90;;;;;;4980439;28;19925;-76
2022/02/09 07:31:36;;;;;;;;;;;8.30;99.90;;;;;;4964331;28;20387;-78
2022/02/09 07:34:02;;;;;;;;;;;8.30;99.90;;;;;;4983801;28;19925;-77
2022/02/09 07:36:31;;;;;;;;;;;8.30;99.90;;;;;;4987186;28;19910;-77
2022/02/09 07:38:59;;;;;;;;;;;8.40;99.90;;;;;;4980880;28;19987;-77
2022/02/09 07:41:25;;;;;;;;;;;8.40;99.90;;;;;;4966578;28;20264;-77
2022/02/09 07:49:02;;;;;;;;;;;8.40;99.90;;;;;;4964770;28;19957;-77
2022/02/09 07:51:54;;;;;;;;;;;8.40;99.90;;;;;;4961737;28;20005;-74
2022/02/09 07:54:21;;;;;;;;;;;8.40;99.90;;;;;;4962942;28;19960;-77
2022/02/09 07:56:47;;;;;;;;;;;8.30;99.90;;;;;;4982114;28;19910;-77
2022/02/09 07:59:14;;;;;;;;;;;8.30;99.90;;;;;;4983330;28;19965;-77
2022/02/09 08:01:39;;;;;;;;;;;8.30;99.90;;;;;;4964495;28;19921;-75
2022/02/09 08:04:05;;;;;;;;;;;8.30;99.90;;;;;;4966820;28;19928;-77
2022/02/09 08:06:31;;;;;;;;;;;8.30;99.90;;;;;;4966579;28;19940;-77
2022/02/09 08:09:00;;;;;;;;;;;8.30;99.90;;;;;;4943532;28;19937;-77
2022/02/09 08:27:22;;;;;;;;;;;8.30;99.90;;;;;;4982153;28;19914;-76
2022/02/09 08:30:21;;;;;;;;;;;8.30;99.90;;;;;;4966135;28;19993;-77
2022/02/09 08:32:39;;;;;;;;;;;8.40;99.90;;;;;;4978050;28;19910;-75
2022/02/09 08:35:04;;;;;;;;;;;8.40;99.90;;;;;;4981026;28;20359;-76
2022/02/09 08:37:30;;;;;;;;;;;8.40;99.90;;;;;;4962983;28;20004;-77
2022/02/09 08:39:56;;;;;;;;;;;8.40;99.90;;;;;;4962793;28;20418;-77
2022/02/09 08:42:23;;;;;;;;;;;8.50;99.90;;;;;;4979621;28;19992;-77
2022/02/09 08:44:48;;;;;;;;;;;8.50;99.90;;;;;;4981166;28;20293;-77
2022/02/09 08:47:14;;;;;;;;;;;8.50;99.90;;;;;;4979796;28;19944;-76
2022/02/09 08:49:39;;;;;;;;;;;8.50;99.90;;;;;;4980679;28;20256;-77
2022/02/09 08:52:06;;;;;;;;;;;8.50;99.90;;;;;;4980505;28;19924;-76
2022/02/09 08:54:32;;;;;;;;;;;8.50;99.90;;;;;;4944444;28;19920;-77
2022/02/09 08:56:59;;;;;;;;;;;8.50;99.90;;;;;;4947829;28;19922;-76
2022/02/09 08:59:28;;;;;;;;;;;8.50;99.90;;;;;;4980435;28;20381;-77
2022/02/09 09:02:10;;;;;;;;;;;8.50;99.90;;;;;;4980418;28;19983;-77
2022/02/09 09:04:42;;;;;;;;;;;8.50;99.90;;;;;;4964538;28;19909;-75
2022/02/09 09:07:14;;;;;;;;;;;8.50;99.90;;;;;;4963395;28;20342;-76
2022/02/09 09:15:30;;;;;;;;;;;8.60;99.90;;;;;;4980076;28;19972;-76
2022/02/09 10:03:24;;;;;;;;;;;8.90;99.90;;;;;;4959790;28;19918;-76
2022/02/09 10:33:55;;;;;;;;;;;9.00;99.90;;;;;;4979380;28;19914;-77
2022/02/09 10:36:21;;;;;;;;;;;9.00;99.90;;;;;;4978723;28;19922;-76
2022/02/09 10:38:49;;;;;;;;;;;9.00;99.90;;;;;;4978403;28;20001;-74
2022/02/09 10:41:26;;;;;;;;;;;9.00;99.90;;;;;;4962270;28;19941;-77
2022/02/09 10:44:05;;;;;;;;;;;8.90;99.90;;;;;;4962131;28;19909;-77
2022/02/09 10:46:31;;;;;;;;;;;9.00;99.90;;;;;;4964233;28;19914;-75
2022/02/09 10:49:00;;;;;;;;;;;9.00;99.90;;;;;;4984327;28;20009;-76
2022/02/09 10:54:16;;;;;;;;;;;9.10;99.90;;;;;;4961893;28;19987;-75
2022/02/09 10:56:46;;;;;;;;;;;9.10;99.90;;;;;;4965846;28;19916;-77
2022/02/09 10:59:13;;;;;;;;;;;9.00;99.90;;;;;;4962426;28;19952;-77
2022/02/09 11:01:40;;;;;;;;;;;9.00;99.90;;;;;;4963714;28;19909;-75
2022/02/09 11:04:06;;;;;;;;;;;9.00;99.90;;;;;;4983174;28;20283;-76
2022/02/09 11:06:33;;;;;;;;;;;9.00;99.90;;;;;;4965401;28;19913;-75
2022/02/09 11:08:59;;;;;;;;;;;9.00;99.90;;;;;;4981773;28;19925;-76
2022/02/09 11:11:27;;;;;;;;;;;9.00;99.90;;;;;;4965544;28;20403;-76
2022/02/09 11:13:53;;;;;;;;;;;9.00;99.90;;;;;;4964937;28;19963;-77
2022/02/09 11:16:21;;;;;;;;;;;9.00;99.90;;;;;;4965677;28;19913;-76
2022/02/09 11:18:47;;;;;;;;;;;9.00;99.90;;;;;;4981980;28;19971;-76
2022/02/09 11:21:14;;;;;;;;;;;9.00;99.90;;;;;;4963259;28;19948;-76
2022/02/09 11:23:53;;;;;;;;;;;9.00;99.90;;;;;;4965522;28;20560;-77
2022/02/09 11:26:30;;;;;;;;;;;9.00;99.90;;;;;;4965168;28;19941;-72
2022/02/09 11:29:25;;;;;;;;;;;9.00;99.90;;;;;;4981301;28;19917;-72
2022/02/09 11:32:05;;;;;;;;;;;9.00;99.90;;;;;;4981073;28;19920;-73
2022/02/09 11:34:48;;;;;;;;;;;9.00;99.90;;;;;;4980312;28;19910;-75
2022/02/09 11:37:17;;;;;;;;;;;9.00;99.90;;;;;;4980388;28;19957;-74
2022/02/09 11:39:43;;;;;;;;;;;9.00;99.90;;;;;;4980267;28;19910;-75
2022/02/09 11:42:48;;;;;;;;;;;9.10;99.90;;;;;;4961725;28;19910;-74
2022/02/09 11:45:38;;;;;;;;;;;9.10;99.90;;;;;;4982433;28;19914;-72
2022/02/09 11:49:12;;;;;;;;;;;9.10;99.90;;;;;;4980395;28;19909;-74
2022/02/09 11:51:22;;;;;;;;;;;9.10;99.90;;;;;;4960540;28;20395;-72
2022/02/09 12:00:04;;;;;;;;;;;9.10;99.90;;;;;;4980974;28;19961;-73
2022/02/09 12:13:48;;;;;;;;;;;9.20;99.90;;;;;;4980378;28;20405;-73
2022/02/09 12:19:03;;;;;;;;;;;9.20;99.90;;;;;;4976359;28;19910;-73
2022/02/09 12:21:44;;;;;;;;;;;9.30;99.90;;;;;;4978746;28;20368;-73
2022/02/09 12:24:21;;;;;;;;;;;9.30;99.90;;;;;;4978957;28;20360;-74
2022/02/09 12:26:58;;;;;;;;;;;9.40;99.90;;;;;;4946471;28;19913;-74
2022/02/09 12:29:30;;;;;;;;;;;9.40;99.90;;;;;;4963443;28;20511;-75
2022/02/09 12:31:56;;;;;;;;;;;9.40;99.90;;;;;;4964007;28;19922;-73
2022/02/09 12:34:23;;;;;;;;;;;9.30;99.90;;;;;;4980121;28;19936;-74
2022/02/09 12:36:48;;;;;;;;;;;9.30;99.90;;;;;;4963461;28;20008;-74
2022/02/09 12:39:15;;;;;;;;;;;9.30;99.90;;;;;;4961758;28;20008;-74
2022/02/09 12:41:42;;;;;;;;;;;9.20;99.90;;;;;;4963910;28;19910;-74
2022/02/09 12:44:08;;;;;;;;;;;9.30;99.90;;;;;;5005014;23;19921;-73
2022/02/09 12:46:35;;;;;;;;;;;9.30;99.90;;;;;;4980733;28;19917;-75
2022/02/09 12:49:27;;;;;;;;;;;9.30;99.90;;;;;;4981045;28;20292;-73
2022/02/09 12:51:52;;;;;;;;;;;9.30;99.90;;;;;;4976253;28;19937;-74
2022/02/09 12:54:19;;;;;;;;;;;9.30;99.90;;;;;;4973057;28;19910;-74
2022/02/09 12:56:47;;;;;;;;;;;9.30;99.90;;;;;;4961985;28;19961;-74
2022/02/09 12:59:14;;;;;;;;;;;9.40;99.90;;;;;;4964422;28;19913;-74
2022/02/09 13:01:39;;;;;;;;;;;9.40;99.90;;;;;;4958508;28;20291;-74
2022/02/09 13:04:05;;;;;;;;;;;9.30;99.90;;;;;;4963465;28;19933;-74
2022/02/09 13:06:31;;;;;;;;;;;9.30;99.90;;;;;;4962773;28;19917;-74
2022/02/09 13:08:56;;;;;;;;;;;9.30;99.90;;;;;;4959240;28;19914;-74
2022/02/09 13:11:28;;;;;;;;;;;9.30;99.90;;;;;;4959761;28;19914;-74
2022/02/09 13:14:00;;;;;;;;;;;9.30;99.90;;;;;;4960385;28;19918;-74
2022/02/09 13:16:43;;;;;;;;;;;9.30;99.90;;;;;;4961006;28;19914;-74
2022/02/09 14:53:40;;;;;;;;;;;9.10;99.90;;;;;;4953849;28;19964;-75
2022/02/09 14:56:18;;;;;;;;;;;9.10;99.90;;;;;;4938910;28;19933;-75
2022/02/09 14:58:47;;;;;;;;;;;9.00;99.90;;;;;;4962285;28;19950;-74
2022/02/09 15:01:14;;;;;;;;;;;9.00;99.90;;;;;;4965398;28;19914;-75
2022/02/09 15:04:15;;;;;;;;;;;9.00;99.90;;;;;;4965866;28;19918;-74
2022/02/09 15:11:38;;;;;;;;;;;9.00;99.90;;;;;;4954219;28;20576;-74
2022/02/09 15:14:12;;;;;;;;;;;8.90;99.90;;;;;;4952082;28;19926;-74
2022/02/09 15:19:18;;;;;;;;;;;9.00;99.90;;;;;;4954584;28;20336;-74
2022/02/09 15:22:02;;;;;;;;;;;9.00;99.90;;;;;;4951940;28;19913;-75
2022/02/09 15:24:42;;;;;;;;;;;8.90;99.90;;;;;;4956925;28;20412;-74
2022/02/09 15:27:11;;;;;;;;;;;9.00;99.90;;;;;;4954493;28;20370;-75
2022/02/09 15:29:37;;;;;;;;;;;8.90;99.90;;;;;;4953695;28;20013;-74
2022/02/09 15:32:07;;;;;;;;;;;8.90;99.90;;;;;;4956193;28;19921;-75
2022/02/09 15:34:39;;;;;;;;;;;8.90;99.90;;;;;;4955359;28;20455;-74
2022/02/09 15:37:17;;;;;;;;;;;8.90;99.90;;;;;;4954899;28;19914;-74
2022/02/09 15:39:50;;;;;;;;;;;8.90;99.90;;;;;;4956338;28;19918;-75
2022/02/09 16:07:23;;;;;;;;;;;8.80;99.90;;;;;;4960924;28;19913;-74
2022/02/09 16:25:33;;;;;;;;;;;8.70;99.90;;;;;;4958923;28;19928;-77
2022/02/09 16:33:51;;;;;;;;;;;8.60;99.90;;;;;;4960076;28;21145;-76
2022/02/09 16:46:51;;;;;;;;;;;8.50;99.90;;;;;;4977686;28;20001;-76
2022/02/09 16:49:28;;;;;;;;;;;8.50;99.90;;;;;;4962022;28;19943;-74
2022/02/09 16:52:06;;;;;;;;;;;8.40;99.90;;;;;;4960035;28;20380;-75
2022/02/09 16:54:47;;;;;;;;;;;8.40;99.90;;;;;;4959804;28;19910;-75
2022/02/09 17:08:25;;;;;;;;;;;8.40;99.90;;;;;;4958865;28;19925;-76
2022/02/09 17:11:09;;;;;;;;;;;8.30;99.90;;;;;;4958867;28;20266;-74
2022/02/09 17:19:21;;;;;;;;;;;8.20;99.90;;;;;;4959192;28;19952;-74
2022/02/09 17:21:46;;;;;;;;;;;8.20;99.90;;;;;;4965497;28;19914;-74
2022/02/09 17:24:13;;;;;;;;;;;8.20;99.90;;;;;;4968301;28;19921;-74
2022/02/09 17:26:39;;;;;;;;;;;8.20;99.90;;;;;;4960574;28;20284;-73
2022/02/09 17:29:05;;;;;;;;;;;8.20;99.90;;;;;;4961655;28;19910;-73
2022/02/09 17:31:39;;;;;;;;;;;8.20;99.90;;;;;;4959649;28;20376;-73
2022/02/09 17:58:07;;;;;;;;;;;8.00;99.90;;;;;;4963100;28;19917;-74
2022/02/09 18:00:33;;;;;;;;;;;8.00;99.90;;;;;;4963515;28;19918;-74
2022/02/09 18:02:59;;;;;;;;;;;8.10;99.90;;;;;;4966471;28;20328;-72
2022/02/09 18:05:39;;;;;;;;;;;8.00;99.90;;;;;;4965002;28;19918;-74
2022/02/09 18:08:10;;;;;;;;;;;8.00;99.90;;;;;;4965356;28;19914;-74
2022/02/09 19:03:58;;;;;;;;;;;7.70;99.90;;;;;;4982977;28;19964;-76
2022/02/09 19:14:31;;;;;;;;;;;7.70;99.90;;;;;;4981682;28;19910;-74
2022/02/09 19:17:02;;;;;;;;;;;7.70;99.90;;;;;;4980854;28;19936;-77
2022/02/09 19:40:39;;;;;;;;;;;7.80;99.90;;;;;;4988701;28;20004;-75
2022/02/09 19:46:43;;;;;;;;;;;7.70;99.90;;;;;;4991163;28;19921;-75
2022/02/09 19:54:27;;;;;;;;;;;7.70;99.90;;;;;;4981219;28;19914;-75
2022/02/09 19:57:00;;;;;;;;;;;7.70;99.90;;;;;;4981491;28;19952;-75
2022/02/09 19:59:26;;;;;;;;;;;7.70;99.90;;;;;;4986145;28;19925;-75
2022/02/09 20:01:53;;;;;;;;;;;7.70;99.90;;;;;;4983711;28;20813;-76
2022/02/09 20:04:19;;;;;;;;;;;7.70;99.90;;;;;;4980579;28;20283;-75
2022/02/09 20:06:45;;;;;;;;;;;7.70;99.90;;;;;;4984874;28;19910;-77
2022/02/09 20:09:11;;;;;;;;;;;7.70;99.90;;;;;;4970184;28;20032;-77
2022/02/09 20:11:41;;;;;;;;;;;7.60;99.90;;;;;;4982542;28;19914;-76
2022/02/09 20:14:07;;;;;;;;;;;7.60;99.90;;;;;;4971760;28;20305;-75
2022/02/09 20:16:33;;;;;;;;;;;7.50;99.90;;;;;;4983352;28;20005;-76
2022/02/09 20:18:58;;;;;;;;;;;7.50;99.90;;;;;;4981379;28;19972;-75
2022/02/09 20:21:26;;;;;;;;;;;7.50;99.90;;;;;;4985668;28;19974;-76
2022/02/09 20:23:52;;;;;;;;;;;7.50;99.90;;;;;;4987275;28;19910;-74
2022/02/09 20:26:18;;;;;;;;;;;7.50;99.90;;;;;;4983124;28;19996;-74
2022/02/09 20:28:59;;;;;;;;;;;7.50;99.90;;;;;;4984995;28;20000;-74
2022/02/09 20:31:32;;;;;;;;;;;7.50;99.90;;;;;;4981220;28;19968;-75
2022/02/09 20:34:04;;;;;;;;;;;7.50;99.90;;;;;;4977238;28;19917;-73
2022/02/09 20:36:32;;;;;;;;;;;7.50;99.90;;;;;;4981469;28;19909;-73
2022/02/09 20:39:03;;;;;;;;;;;7.40;99.90;;;;;;4967871;28;19917;-73
2022/02/09 20:41:32;;;;;;;;;;;7.40;99.90;;;;;;4985839;28;19913;-74
2022/02/09 20:46:25;;;;;;;;;;;7.40;99.90;;;;;;4982068;28;19929;-75
2022/02/09 20:48:51;;;;;;;;;;;7.40;99.90;;;;;;4978750;28;19913;-74
2022/02/09 20:51:16;;;;;;;;;;;7.30;99.90;;;;;;4982413;28;19924;-76
2022/02/09 20:53:42;;;;;;;;;;;7.30;99.90;;;;;;4965174;28;19960;-75
2022/02/09 20:56:08;;;;;;;;;;;7.30;99.90;;;;;;4975919;28;19949;-75
2022/02/09 20:58:35;;;;;;;;;;;7.30;99.90;;;;;;4964536;28;19910;-76
2022/02/09 21:01:07;;;;;;;;;;;7.30;99.90;;;;;;4972307;28;19977;-76
2022/02/09 21:08:58;;;;;;;;;;;7.40;99.90;;;;;;4983227;28;19937;-76
2022/02/09 21:11:49;;;;;;;;;;;7.40;99.90;;;;;;4977759;28;19964;-75
2022/02/09 21:14:29;;;;;;;;;;;7.30;99.90;;;;;;4978618;28;20483;-76
2022/02/09 21:54:38;;;;;;;;;;;7.10;99.90;;;;;;4981170;28;20423;-76
2022/02/09 21:57:18;;;;;;;;;;;7.00;99.90;;;;;;4977282;28;19910;-76
2022/02/09 22:16:32;;;;;;;;;;;7.00;99.90;;;;;;4980192;28;19920;-78
2022/02/09 22:30:24;;;;;;;;;;;6.80;99.90;;;;;;4981823;28;19913;-75
2022/02/09 22:49:59;;;;;;;;;;;6.80;99.90;;;;;;4987774;28;19949;-76
2022/02/09 22:56:51;;;;;;;;;;;6.60;99.90;;;;;;4978178;28;20383;-75
2022/02/09 22:59:33;;;;;;;;;;;6.60;99.90;;;;;;4983425;28;19906;-76
2022/02/09 23:02:08;;;;;;;;;;;6.60;99.90;;;;;;4987708;28;19944;-76
2022/02/09 23:07:13;;;;;;;;;;;6.50;99.90;;;;;;4984796;28;20308;-75
2022/02/09 23:15:21;;;;;;;;;;;6.50;99.90;;;;;;4984154;28;20004;-76
2022/02/09 23:18:03;;;;;;;;;;;6.40;99.90;;;;;;4980748;28;20268;-76
